Time;durP1;ratioP1;P1;durP2;ratioP2;P2;SDS_P1;SDS_P2;PMS_P1;PMS_P2;Temp;Humidity;BMP_temperature;BMP_pressure;BME280_temperature;BME280_humidity;BME280_pressure;Samples;Min_cycle;Max_cycle;Signal;HPM_P1;HPM_P2
2021/12/15 00:02:10;;;;;;;22.10;12.27;;;;;;;;;;5033813;28;20206;-78
2021/12/15 00:04:37;;;;;;;18.17;12.20;;;;;;;;;;5034444;28;20244;-77
2021/12/15 00:07:04;;;;;;;17.90;11.90;;;;;;;;;;5033368;28;20260;-78
2021/12/15 00:09:31;;;;;;;18.83;11.03;;;;;;;;;;5033552;28;20234;-79
2021/12/15 00:12:03;;;;;;;19.17;11.33;;;;;;;;;;5033559;28;20213;-78
2021/12/15 00:14:30;;;;;;;13.53;9.67;;;;;;;;;;5032794;28;20765;-78
2021/12/15 00:16:57;;;;;;;12.87;9.20;;;;;;;;;;5033592;28;20225;-78
2021/12/15 00:19:26;;;;;;;17.00;9.37;;;;;;;;;;5033331;28;20235;-79
2021/12/15 00:21:53;;;;;;;16.03;10.37;;;;;;;;;;5033524;28;20206;-79
2021/12/15 00:24:20;;;;;;;18.43;10.50;;;;;;;;;;5031774;28;20231;-78
2021/12/15 00:26:48;;;;;;;22.63;10.67;;;;;;;;;;5033593;28;20607;-79
2021/12/15 00:29:16;;;;;;;15.17;9.63;;;;;;;;;;5033187;28;20242;-78
2021/12/15 00:31:45;;;;;;;18.90;9.80;;;;;;;;;;5032979;28;20578;-78
2021/12/15 00:34:13;;;;;;;15.90;9.27;;;;;;;;;;5033569;28;20307;-78
2021/12/15 00:36:43;;;;;;;13.00;8.63;;;;;;;;;;5033360;28;20608;-79
2021/12/15 00:39:11;;;;;;;15.67;9.17;;;;;;;;;;5032790;28;20235;-78
2021/12/15 00:41:39;;;;;;;14.57;9.37;;;;;;;;;;5013572;28;20219;-78
2021/12/15 00:44:06;;;;;;;16.73;9.97;;;;;;;;;;5012485;28;20226;-79
2021/12/15 00:46:35;;;;;;;19.43;9.60;;;;;;;;;;5018869;28;20598;-78
2021/12/15 00:49:02;;;;;;;17.07;10.00;;;;;;;;;;5032806;28;20238;-79
2021/12/15 00:51:29;;;;;;;22.33;10.57;;;;;;;;;;5033150;28;20209;-78
2021/12/15 00:53:56;;;;;;;19.97;10.27;;;;;;;;;;5032541;28;20233;-78
2021/12/15 00:56:23;;;;;;;17.57;9.13;;;;;;;;;;5032250;28;20206;-79
2021/12/15 00:58:50;;;;;;;27.63;10.37;;;;;;;;;;5031841;28;20234;-79
2021/12/15 01:01:17;;;;;;;18.80;10.77;;;;;;;;;;5028751;28;20625;-78
2021/12/15 01:03:46;;;;;;;16.67;10.40;;;;;;;;;;5012450;28;20211;-78
2021/12/15 01:06:17;;;;;;;18.77;11.50;;;;;;;;;;5016743;28;20209;-79
2021/12/15 01:08:46;;;;;;;18.37;11.17;;;;;;;;;;5032557;28;20237;-78
2021/12/15 01:11:21;;;;;;;17.23;11.43;;;;;;;;;;5032397;28;20213;-78
2021/12/15 01:22:09;;;;;;;16.23;10.00;;;;;;;;;;5031794;28;20221;-79
2021/12/15 01:24:36;;;;;;;16.60;10.83;;;;;;;;;;5032683;28;20245;-79
2021/12/15 01:27:03;;;;;;;15.63;10.47;;;;;;;;;;5032524;28;20208;-79
2021/12/15 01:29:30;;;;;;;15.40;10.60;;;;;;;;;;5031973;28;20241;-78
2021/12/15 01:31:57;;;;;;;16.93;10.50;;;;;;;;;;5023693;28;20562;-79
2021/12/15 01:34:26;;;;;;;15.40;9.80;;;;;;;;;;5031889;28;20232;-78
2021/12/15 01:36:53;;;;;;;15.27;10.03;;;;;;;;;;5032461;28;20260;-78
2021/12/15 01:39:20;;;;;;;15.23;9.67;;;;;;;;;;5031632;28;20238;-79
2021/12/15 01:41:47;;;;;;;17.87;11.30;;;;;;;;;;5032331;28;20237;-79
2021/12/15 01:47:01;;;;;;;19.03;12.03;;;;;;;;;;5031624;28;20256;-79
2021/12/15 01:49:33;;;;;;;22.93;10.73;;;;;;;;;;5031503;28;20694;-79
2021/12/15 01:52:02;;;;;;;16.73;10.53;;;;;;;;;;5031671;28;20551;-79
2021/12/15 01:54:29;;;;;;;20.37;11.20;;;;;;;;;;5031127;28;20253;-78
2021/12/15 01:56:57;;;;;;;18.87;10.80;;;;;;;;;;5031933;28;20214;-78
2021/12/15 01:59:25;;;;;;;19.67;10.40;;;;;;;;;;5023965;28;20705;-79
2021/12/15 02:01:52;;;;;;;19.57;10.47;;;;;;;;;;5015625;28;20231;-78
2021/12/15 02:04:20;;;;;;;16.80;10.50;;;;;;;;;;5018044;28;20231;-78
2021/12/15 02:06:49;;;;;;;19.50;10.83;;;;;;;;;;5008013;28;20229;-79
2021/12/15 02:09:26;;;;;;;15.43;10.37;;;;;;;;;;5014020;28;20244;-78
2021/12/15 02:11:54;;;;;;;20.30;10.73;;;;;;;;;;4994538;28;20249;-79
2021/12/15 02:14:21;;;;;;;18.00;10.53;;;;;;;;;;5011443;28;20234;-78
2021/12/15 02:16:48;;;;;;;21.10;11.33;;;;;;;;;;5012389;28;20227;-79
2021/12/15 02:19:15;;;;;;;16.83;10.70;;;;;;;;;;5011842;28;20241;-78
2021/12/15 02:21:44;;;;;;;18.10;9.73;;;;;;;;;;5011972;28;20234;-79
2021/12/15 02:24:11;;;;;;;17.57;10.27;;;;;;;;;;5011478;28;20241;-79
2021/12/15 02:26:44;;;;;;;14.57;9.93;;;;;;;;;;5011741;28;20210;-78
2021/12/15 02:29:16;;;;;;;12.70;9.27;;;;;;;;;;5011668;28;20269;-78
2021/12/15 02:31:56;;;;;;;15.60;9.67;;;;;;;;;;5011897;28;20203;-79
2021/12/15 02:34:44;;;;;;;20.00;10.67;;;;;;;;;;5011013;28;20241;-79
2021/12/15 02:37:17;;;;;;;17.33;9.27;;;;;;;;;;5011670;28;20210;-80
2021/12/15 02:39:46;;;;;;;13.30;8.77;;;;;;;;;;5027949;28;20262;-78
2021/12/15 02:42:13;;;;;;;15.20;8.90;;;;;;;;;;5017964;28;20225;-78
2021/12/15 02:44:43;;;;;;;17.97;10.30;;;;;;;;;;5020893;28;20234;-79
2021/12/15 02:47:11;;;;;;;16.13;10.27;;;;;;;;;;5011438;28;20198;-79
2021/12/15 02:49:38;;;;;;;17.03;9.77;;;;;;;;;;5011670;28;20270;-78
2021/12/15 02:52:05;;;;;;;14.60;9.63;;;;;;;;;;5012159;28;20220;-78
2021/12/15 02:54:34;;;;;;;17.40;10.47;;;;;;;;;;5011394;28;20621;-79
2021/12/15 02:57:06;;;;;;;16.60;10.67;;;;;;;;;;5029356;28;20281;-78
2021/12/15 02:59:42;;;;;;;18.47;10.20;;;;;;;;;;5028469;28;20633;-79
2021/12/15 03:02:12;;;;;;;13.13;9.23;;;;;;;;;;5020058;28;20275;-79
2021/12/15 03:04:44;;;;;;;17.70;10.37;;;;;;;;;;5024695;28;20242;-79
2021/12/15 03:07:17;;;;;;;13.77;9.43;;;;;;;;;;5028235;28;20411;-79
2021/12/15 03:15:30;;;;;;;13.27;8.60;;;;;;;;;;5021055;28;20237;-80
2021/12/15 03:17:59;;;;;;;18.23;10.10;;;;;;;;;;5031607;28;20234;-80
2021/12/15 03:20:27;;;;;;;15.63;9.37;;;;;;;;;;5038147;28;20235;-79
2021/12/15 03:22:54;;;;;;;17.07;8.93;;;;;;;;;;5039405;28;20225;-79
2021/12/15 03:25:24;;;;;;;14.50;8.97;;;;;;;;;;5038595;28;20239;-79
2021/12/15 03:33:55;;;;;;;19.03;11.30;;;;;;;;;;5028216;28;20543;-79
2021/12/15 03:36:34;;;;;;;13.97;9.63;;;;;;;;;;5019070;28;20254;-79
2021/12/15 03:39:01;;;;;;;17.40;10.73;;;;;;;;;;5018545;28;20237;-79
2021/12/15 03:41:30;;;;;;;20.47;10.80;;;;;;;;;;5026789;28;20405;-79
2021/12/15 03:43:57;;;;;;;17.10;10.33;;;;;;;;;;5008471;28;20353;-79
2021/12/15 03:46:24;;;;;;;16.20;10.07;;;;;;;;;;5018940;28;20215;-79
2021/12/15 03:48:51;;;;;;;19.17;10.80;;;;;;;;;;5022436;28;20295;-79
2021/12/15 03:51:18;;;;;;;18.23;10.27;;;;;;;;;;5039417;28;20217;-79
2021/12/15 03:53:45;;;;;;;15.43;10.30;;;;;;;;;;5038262;28;20244;-79
2021/12/15 03:56:14;;;;;;;17.87;10.17;;;;;;;;;;5038904;28;20238;-79
2021/12/15 03:58:43;;;;;;;16.93;9.77;;;;;;;;;;5038595;28;20304;-80
2021/12/15 04:01:12;;;;;;;19.60;10.47;;;;;;;;;;5022958;28;20639;-80
2021/12/15 04:03:40;;;;;;;18.63;9.77;;;;;;;;;;5018497;28;20229;-80
2021/12/15 04:06:08;;;;;;;16.93;10.10;;;;;;;;;;5016050;28;20212;-80
2021/12/15 04:08:35;;;;;;;18.17;11.00;;;;;;;;;;5018069;28;20237;-80
2021/12/15 04:11:03;;;;;;;18.93;10.10;;;;;;;;;;5018017;28;20230;-80
2021/12/15 04:13:30;;;;;;;17.47;10.23;;;;;;;;;;5019206;28;20210;-80
2021/12/15 04:16:05;;;;;;;20.07;11.20;;;;;;;;;;5038155;28;20223;-80
2021/12/15 04:18:33;;;;;;;18.30;10.93;;;;;;;;;;5037995;28;20241;-80
2021/12/15 04:21:00;;;;;;;17.00;10.03;;;;;;;;;;5017786;28;20220;-80
2021/12/15 04:23:27;;;;;;;16.20;9.70;;;;;;;;;;5018842;28;20204;-81
2021/12/15 04:25:56;;;;;;;13.37;9.10;;;;;;;;;;5038370;28;20296;-81
2021/12/15 04:28:25;;;;;;;14.10;9.00;;;;;;;;;;5038799;28;20231;-81
2021/12/15 04:30:54;;;;;;;14.53;9.57;;;;;;;;;;5038921;28;20257;-80
2021/12/15 04:33:24;;;;;;;13.20;9.13;;;;;;;;;;5038777;28;20213;-80
2021/12/15 04:35:52;;;;;;;15.37;9.27;;;;;;;;;;5037997;28;20238;-80
2021/12/15 04:38:19;;;;;;;14.17;8.87;;;;;;;;;;5034261;28;20221;-80
2021/12/15 04:40:46;;;;;;;15.17;9.13;;;;;;;;;;5030630;28;20230;-81
2021/12/15 04:43:13;;;;;;;14.10;9.73;;;;;;;;;;5038181;28;20205;-80
2021/12/15 04:45:41;;;;;;;14.40;9.40;;;;;;;;;;5037683;28;20240;-80
2021/12/15 04:48:08;;;;;;;14.00;9.20;;;;;;;;;;5037752;28;20229;-80
2021/12/15 04:50:37;;;;;;;14.67;9.87;;;;;;;;;;5037730;28;20239;-80
2021/12/15 04:53:04;;;;;;;14.83;8.90;;;;;;;;;;5026950;28;20668;-82
2021/12/15 04:55:33;;;;;;;12.53;9.07;;;;;;;;;;5037565;28;20588;-82
2021/12/15 04:58:00;;;;;;;15.83;9.03;;;;;;;;;;5039375;28;20280;-81
2021/12/15 05:00:29;;;;;;;15.23;9.10;;;;;;;;;;5027482;28;20226;-81
2021/12/15 05:02:56;;;;;;;19.03;9.83;;;;;;;;;;5039074;28;20209;-81
2021/12/15 05:05:24;;;;;;;13.93;9.50;;;;;;;;;;5038671;28;20243;-81
2021/12/15 05:07:53;;;;;;;14.97;9.27;;;;;;;;;;5039330;28;20229;-81
2021/12/15 05:10:21;;;;;;;13.53;9.63;;;;;;;;;;5037811;28;20259;-80
2021/12/15 05:12:48;;;;;;;14.13;10.20;;;;;;;;;;5038201;28;20217;-81
2021/12/15 05:15:15;;;;;;;17.53;9.13;;;;;;;;;;5037715;28;20237;-81
2021/12/15 05:17:42;;;;;;;16.90;10.40;;;;;;;;;;5037107;28;20233;-81
2021/12/15 05:20:09;;;;;;;17.37;10.33;;;;;;;;;;5037312;28;20302;-81
2021/12/15 05:22:37;;;;;;;18.30;10.57;;;;;;;;;;5037799;28;20226;-81
2021/12/15 05:25:07;;;;;;;15.90;9.13;;;;;;;;;;5036908;28;20238;-80
2021/12/15 05:27:35;;;;;;;15.63;9.70;;;;;;;;;;5045923;28;20209;-82
2021/12/15 05:30:02;;;;;;;13.77;8.90;;;;;;;;;;5040302;28;20261;-81
2021/12/15 05:32:29;;;;;;;14.07;8.97;;;;;;;;;;5039055;28;20202;-80
2021/12/15 05:34:59;;;;;;;11.90;8.63;;;;;;;;;;5036659;28;20229;-81
2021/12/15 05:37:27;;;;;;;12.50;8.10;;;;;;;;;;5038229;28;20271;-80
2021/12/15 05:39:55;;;;;;;12.90;8.33;;;;;;;;;;5037244;28;20230;-81
2021/12/15 05:42:24;;;;;;;13.17;8.50;;;;;;;;;;5038305;28;20229;-81
2021/12/15 05:44:52;;;;;;;14.33;8.40;;;;;;;;;;5038065;28;20292;-81
2021/12/15 05:47:20;;;;;;;14.30;8.43;;;;;;;;;;5039012;28;20206;-81
2021/12/15 05:49:48;;;;;;;13.00;8.20;;;;;;;;;;5037895;28;20248;-81
2021/12/15 05:52:15;;;;;;;13.83;8.40;;;;;;;;;;5038737;28;20698;-81
2021/12/15 05:54:42;;;;;;;13.20;8.87;;;;;;;;;;5038630;28;20717;-81
2021/12/15 05:57:09;;;;;;;13.87;8.90;;;;;;;;;;5036290;28;20210;-80
2021/12/15 05:59:38;;;;;;;12.77;8.70;;;;;;;;;;5033693;28;20238;-80
2021/12/15 06:02:05;;;;;;;11.17;8.03;;;;;;;;;;5034912;28;20242;-80
2021/12/15 06:04:32;;;;;;;14.53;9.20;;;;;;;;;;5036729;28;20240;-80
2021/12/15 06:06:59;;;;;;;12.10;8.60;;;;;;;;;;5036703;28;20690;-80
2021/12/15 06:09:27;;;;;;;14.87;10.67;;;;;;;;;;5035152;28;20234;-79
2021/12/15 06:11:54;;;;;;;18.17;10.80;;;;;;;;;;5032162;28;20236;-78
2021/12/15 06:14:24;;;;;;;16.17;10.40;;;;;;;;;;5031469;28;20725;-78
2021/12/15 06:16:54;;;;;;;14.47;9.90;;;;;;;;;;5031927;28;20211;-78
2021/12/15 06:19:21;;;;;;;57.90;30.63;;;;;;;;;;5037834;28;20244;-78
2021/12/15 06:21:48;;;;;;;17.47;10.20;;;;;;;;;;5039398;28;20273;-78
2021/12/15 06:24:15;;;;;;;12.57;8.43;;;;;;;;;;5037253;28;20710;-78
2021/12/15 06:26:42;;;;;;;21.70;9.30;;;;;;;;;;5032541;28;20210;-78
2021/12/15 06:29:09;;;;;;;15.07;8.57;;;;;;;;;;5031402;28;20241;-78
2021/12/15 06:31:38;;;;;;;14.27;8.53;;;;;;;;;;5013302;28;20211;-78
2021/12/15 06:34:06;;;;;;;12.83;8.63;;;;;;;;;;5026316;28;20229;-78
2021/12/15 06:36:33;;;;;;;11.90;8.60;;;;;;;;;;5035914;28;20205;-78
2021/12/15 06:39:02;;;;;;;13.07;8.80;;;;;;;;;;5034920;28;20259;-78
2021/12/15 06:41:29;;;;;;;14.90;9.47;;;;;;;;;;5035857;28;20241;-79
2021/12/15 06:43:56;;;;;;;14.73;9.23;;;;;;;;;;5034939;28;20284;-78
2021/12/15 07:00:11;;;;;;;14.63;8.07;;;;;;;;;;5003969;28;20276;-77
2021/12/15 07:02:39;;;;;;;12.67;8.20;;;;;;;;;;5034724;28;20225;-76
2021/12/15 07:05:08;;;;;;;14.73;8.70;;;;;;;;;;5034379;28;20249;-77
2021/12/15 07:07:35;;;;;;;15.83;9.90;;;;;;;;;;5037465;28;20248;-78
2021/12/15 07:10:03;;;;;;;12.17;8.30;;;;;;;;;;5039333;28;20235;-78
2021/12/15 07:12:30;;;;;;;17.23;8.90;;;;;;;;;;5038513;28;20253;-78
2021/12/15 07:14:57;;;;;;;14.33;8.57;;;;;;;;;;5036786;28;20777;-78
2021/12/15 07:17:25;;;;;;;14.43;8.63;;;;;;;;;;5035915;28;20250;-77
2021/12/15 07:20:05;;;;;;;13.20;8.43;;;;;;;;;;5034342;28;20261;-78
2021/12/15 07:22:43;;;;;;;15.67;9.47;;;;;;;;;;5035699;28;20230;-78
2021/12/15 07:25:11;;;;;;;11.37;8.10;;;;;;;;;;5034512;28;20245;-78
2021/12/15 07:27:39;;;;;;;14.13;8.97;;;;;;;;;;5036174;28;20228;-78
2021/12/15 07:30:07;;;;;;;17.93;10.23;;;;;;;;;;5034762;28;20249;-78
2021/12/15 07:32:34;;;;;;;14.13;9.07;;;;;;;;;;5041562;28;20210;-79
2021/12/15 07:35:01;;;;;;;15.23;9.23;;;;;;;;;;5040180;28;20234;-78
2021/12/15 07:37:28;;;;;;;15.97;9.03;;;;;;;;;;5036408;28;20211;-78
2021/12/15 07:39:58;;;;;;;15.57;10.27;;;;;;;;;;5035981;28;20235;-78
2021/12/15 07:42:33;;;;;;;12.90;9.03;;;;;;;;;;5036745;28;20305;-77
2021/12/15 07:45:00;;;;;;;17.63;10.60;;;;;;;;;;5035519;28;20260;-78
2021/12/15 07:47:27;;;;;;;17.67;10.80;;;;;;;;;;5034724;28;20206;-77
2021/12/15 07:49:54;;;;;;;18.50;9.90;;;;;;;;;;5035604;28;20234;-77
2021/12/15 07:52:21;;;;;;;17.53;11.00;;;;;;;;;;5034433;28;20571;-78
2021/12/15 07:54:48;;;;;;;16.67;10.73;;;;;;;;;;5033898;28;20230;-78
2021/12/15 07:57:19;;;;;;;19.57;11.17;;;;;;;;;;5034962;28;20222;-77
2021/12/15 07:59:46;;;;;;;18.47;11.83;;;;;;;;;;5034722;28;20324;-78
2021/12/15 08:02:13;;;;;;;20.63;12.43;;;;;;;;;;5035302;28;20280;-77
2021/12/15 08:04:41;;;;;;;22.20;12.40;;;;;;;;;;5034482;28;20610;-78
2021/12/15 08:07:08;;;;;;;17.80;11.13;;;;;;;;;;5035793;28;20218;-78
2021/12/15 08:09:35;;;;;;;20.47;12.30;;;;;;;;;;5034132;28;20249;-77
2021/12/15 08:12:02;;;;;;;19.90;11.83;;;;;;;;;;5034223;28;20600;-77
2021/12/15 08:14:31;;;;;;;18.87;10.87;;;;;;;;;;5035289;28;20233;-78
2021/12/15 08:16:58;;;;;;;16.20;10.63;;;;;;;;;;5036076;28;20230;-77
2021/12/15 08:19:25;;;;;;;18.33;11.30;;;;;;;;;;5040358;28;20234;-78
2021/12/15 08:21:52;;;;;;;14.67;10.23;;;;;;;;;;5033678;28;20720;-78
2021/12/15 08:24:19;;;;;;;17.57;10.13;;;;;;;;;;5033558;28;20229;-78
2021/12/15 08:26:47;;;;;;;16.07;9.50;;;;;;;;;;5033967;28;20689;-78
2021/12/15 08:29:14;;;;;;;20.63;10.30;;;;;;;;;;5033361;28;20242;-78
2021/12/15 08:31:42;;;;;;;16.47;9.63;;;;;;;;;;5033569;28;20213;-78
2021/12/15 08:34:09;;;;;;;14.37;8.97;;;;;;;;;;5032864;28;20237;-78
2021/12/15 08:36:37;;;;;;;19.60;10.60;;;;;;;;;;5035272;28;20206;-78
2021/12/15 08:39:05;;;;;;;17.97;10.40;;;;;;;;;;5033504;28;20235;-78
2021/12/15 08:41:32;;;;;;;15.40;9.97;;;;;;;;;;5033849;28;20218;-78
2021/12/15 08:44:00;;;;;;;15.67;9.77;;;;;;;;;;5033586;28;20234;-78
2021/12/15 08:46:28;;;;;;;18.90;9.57;;;;;;;;;;5033218;28;20333;-77
2021/12/15 08:48:57;;;;;;;18.43;9.97;;;;;;;;;;5032381;28;20261;-78
2021/12/15 08:51:26;;;;;;;18.33;9.53;;;;;;;;;;5034482;28;20210;-80
2021/12/15 08:53:53;;;;;;;17.47;10.23;;;;;;;;;;5032832;28;20235;-77
2021/12/15 08:56:21;;;;;;;15.37;10.40;;;;;;;;;;5033808;28;20210;-78
2021/12/15 08:58:48;;;;;;;15.53;10.13;;;;;;;;;;5034325;28;20241;-78
2021/12/15 09:01:15;;;;;;;17.40;10.87;;;;;;;;;;5024293;28;20671;-77
2021/12/15 09:03:43;;;;;;;15.77;10.20;;;;;;;;;;5028309;28;20242;-76
2021/12/15 09:06:12;;;;;;;15.90;9.97;;;;;;;;;;5031930;28;20202;-76
2021/12/15 09:08:40;;;;;;;20.77;12.20;;;;;;;;;;5031693;28;20284;-76
2021/12/15 09:11:10;;;;;;;16.70;10.40;;;;;;;;;;5031010;28;20297;-76
2021/12/15 09:13:37;;;;;;;19.03;11.00;;;;;;;;;;5032833;28;20261;-76
2021/12/15 09:16:06;;;;;;;15.37;9.97;;;;;;;;;;5051659;28;20210;-77
2021/12/15 09:18:34;;;;;;;15.50;10.30;;;;;;;;;;5046398;28;20652;-76
2021/12/15 09:21:02;;;;;;;15.60;9.93;;;;;;;;;;5031632;28;20234;-76
2021/12/15 09:23:30;;;;;;;16.70;9.90;;;;;;;;;;5031591;28;20306;-79
2021/12/15 09:25:57;;;;;;;13.73;10.50;;;;;;;;;;5032005;28;20298;-78
2021/12/15 09:28:25;;;;;;;16.97;9.77;;;;;;;;;;5032160;28;20285;-77
2021/12/15 09:30:53;;;;;;;17.73;10.10;;;;;;;;;;5030942;28;20234;-77
2021/12/15 09:33:22;;;;;;;15.87;10.30;;;;;;;;;;5034728;28;20256;-76
2021/12/15 09:35:49;;;;;;;11.63;8.90;;;;;;;;;;5042704;28;20234;-76
2021/12/15 09:38:17;;;;;;;14.07;9.40;;;;;;;;;;5046170;28;20268;-76
2021/12/15 09:40:46;;;;;;;14.37;9.20;;;;;;;;;;5035396;28;20711;-76
2021/12/15 09:43:13;;;;;;;13.67;9.50;;;;;;;;;;5028290;28;20231;-76
2021/12/15 09:45:48;;;;;;;16.00;9.97;;;;;;;;;;5039309;28;20230;-76
2021/12/15 10:02:25;;;;;;;27.00;16.40;;;;;;;;;;5031158;28;20205;-76
2021/12/15 10:05:02;;;;;;;20.90;14.33;;;;;;;;;;5030762;28;20230;-77
2021/12/15 10:18:42;;;;;;;16.87;11.47;;;;;;;;;;5029860;28;20238;-77
2021/12/15 10:21:19;;;;;;;18.20;12.30;;;;;;;;;;5030305;28;20210;-77
2021/12/15 10:23:49;;;;;;;15.80;12.33;;;;;;;;;;5030016;28;20734;-76
2021/12/15 10:26:16;;;;;;;14.23;10.73;;;;;;;;;;5030238;28;20245;-76
2021/12/15 10:28:49;;;;;;;16.07;11.67;;;;;;;;;;5029946;28;20238;-77
2021/12/15 10:31:16;;;;;;;11.93;10.37;;;;;;;;;;5030654;28;20238;-77
2021/12/15 10:33:45;;;;;;;12.63;10.33;;;;;;;;;;5030249;28;20214;-77
2021/12/15 10:36:13;;;;;;;12.03;10.40;;;;;;;;;;5030765;28;20206;-76
2021/12/15 10:38:44;;;;;;;12.43;10.07;;;;;;;;;;5030184;28;20227;-77
2021/12/15 10:41:13;;;;;;;13.37;10.60;;;;;;;;;;5029820;28;20703;-78
2021/12/15 10:43:41;;;;;;;11.67;9.07;;;;;;;;;;5029987;28;20288;-76
2021/12/15 10:46:11;;;;;;;10.47;9.17;;;;;;;;;;5030218;28;20655;-76
2021/12/15 10:48:46;;;;;;;11.60;10.00;;;;;;;;;;5029665;28;20238;-77
2021/12/15 10:51:28;;;;;;;11.97;10.63;;;;;;;;;;5029986;28;20237;-76
2021/12/15 10:53:56;;;;;;;13.97;10.80;;;;;;;;;;5028122;28;20292;-76
2021/12/15 10:56:29;;;;;;;12.23;9.70;;;;;;;;;;5030142;28;20302;-76
2021/12/15 10:58:59;;;;;;;11.10;8.93;;;;;;;;;;5029549;28;20238;-76
2021/12/15 11:01:39;;;;;;;14.50;9.47;;;;;;;;;;5029980;28;20215;-76
2021/12/15 11:04:20;;;;;;;9.97;8.33;;;;;;;;;;5029007;28;20307;-77
2021/12/15 11:07:00;;;;;;;9.40;8.30;;;;;;;;;;5030533;28;20654;-77
2021/12/15 11:09:28;;;;;;;9.97;7.20;;;;;;;;;;5030265;28;20905;-77
2021/12/15 11:11:59;;;;;;;10.23;8.13;;;;;;;;;;5029960;28;20529;-76
2021/12/15 11:14:29;;;;;;;10.77;8.30;;;;;;;;;;5028924;28;20439;-77
2021/12/15 11:17:09;;;;;;;10.27;7.80;;;;;;;;;;5029833;28;20211;-77
2021/12/15 11:19:43;;;;;;;9.47;7.37;;;;;;;;;;5030155;28;20285;-77
2021/12/15 11:22:29;;;;;;;10.03;7.80;;;;;;;;;;5033111;28;20206;-77
2021/12/15 11:24:56;;;;;;;8.80;7.30;;;;;;;;;;5033663;28;20242;-77
2021/12/15 11:27:23;;;;;;;9.20;7.53;;;;;;;;;;5034092;28;20210;-77
2021/12/15 11:29:50;;;;;;;11.03;7.73;;;;;;;;;;5029696;28;20230;-78
2021/12/15 11:32:38;;;;;;;9.00;7.43;;;;;;;;;;5028734;28;20253;-77
2021/12/15 11:35:07;;;;;;;8.40;7.17;;;;;;;;;;5031634;28;20597;-77
2021/12/15 11:37:44;;;;;;;8.57;7.33;;;;;;;;;;5000484;28;20207;-77
2021/12/15 11:40:12;;;;;;;9.67;7.60;;;;;;;;;;5027353;28;20325;-77
2021/12/15 11:42:39;;;;;;;10.17;7.63;;;;;;;;;;5033269;28;20210;-78
2021/12/15 11:45:07;;;;;;;9.07;7.10;;;;;;;;;;5033184;28;20258;-77
2021/12/15 11:47:35;;;;;;;10.17;7.70;;;;;;;;;;5032922;28;20606;-79
2021/12/15 11:50:08;;;;;;;12.50;9.00;;;;;;;;;;5016928;28;20230;-77
2021/12/15 11:52:39;;;;;;;9.93;8.33;;;;;;;;;;5013366;28;20207;-77
2021/12/15 11:55:08;;;;;;;8.33;6.97;;;;;;;;;;5011395;28;20314;-77
2021/12/15 11:57:35;;;;;;;11.87;7.47;;;;;;;;;;5012047;28;20247;-77
2021/12/15 12:00:07;;;;;;;8.87;7.47;;;;;;;;;;5012758;28;20259;-77
2021/12/15 12:02:35;;;;;;;10.07;7.30;;;;;;;;;;5013268;28;20207;-77
2021/12/15 12:05:04;;;;;;;8.60;6.80;;;;;;;;;;5011989;28;20234;-77
2021/12/15 12:07:33;;;;;;;8.70;7.40;;;;;;;;;;5012987;28;20746;-77
2021/12/15 12:10:02;;;;;;;13.33;7.47;;;;;;;;;;5024733;28;20614;-77
2021/12/15 12:12:35;;;;;;;9.53;6.77;;;;;;;;;;5031666;28;20207;-77
2021/12/15 12:15:02;;;;;;;8.40;7.30;;;;;;;;;;5030207;28;20238;-78
2021/12/15 12:17:31;;;;;;;8.60;6.90;;;;;;;;;;5033058;28;20218;-77
2021/12/15 12:20:00;;;;;;;9.30;7.67;;;;;;;;;;5032062;28;20238;-78
2021/12/15 12:22:29;;;;;;;8.27;6.97;;;;;;;;;;5032504;28;20237;-77
2021/12/15 12:24:59;;;;;;;8.07;7.03;;;;;;;;;;5027902;28;20242;-77
2021/12/15 12:27:29;;;;;;;8.07;6.60;;;;;;;;;;5031953;28;20232;-77
2021/12/15 12:29:58;;;;;;;11.67;6.27;;;;;;;;;;5022941;28;20231;-77
2021/12/15 12:32:25;;;;;;;7.83;6.17;;;;;;;;;;5030064;28;20206;-77
2021/12/15 12:34:53;;;;;;;6.60;5.77;;;;;;;;;;5030975;28;20234;-77
2021/12/15 12:37:21;;;;;;;8.03;6.13;;;;;;;;;;5032062;28;20210;-77
2021/12/15 12:39:53;;;;;;;8.60;6.30;;;;;;;;;;5032024;28;20241;-77
2021/12/15 12:42:30;;;;;;;8.37;6.23;;;;;;;;;;5031961;28;20218;-79
2021/12/15 12:45:11;;;;;;;8.43;6.20;;;;;;;;;;5032037;28;20249;-77
2021/12/15 12:47:45;;;;;;;8.57;6.87;;;;;;;;;;5032647;28;20253;-77
2021/12/15 12:50:36;;;;;;;8.77;6.37;;;;;;;;;;5031970;28;20237;-77
2021/12/15 13:01:35;;;;;;;8.63;6.30;;;;;;;;;;5032255;28;20210;-76
2021/12/15 13:04:09;;;;;;;8.53;6.73;;;;;;;;;;5031588;28;20698;-77
2021/12/15 13:06:40;;;;;;;8.93;6.70;;;;;;;;;;5032276;28;20580;-76
2021/12/15 13:09:10;;;;;;;8.43;6.30;;;;;;;;;;5031629;28;20882;-76
2021/12/15 13:11:39;;;;;;;6.17;5.23;;;;;;;;;;5032046;28;20211;-77
2021/12/15 13:14:09;;;;;;;5.57;4.23;;;;;;;;;;5029771;28;20236;-76
2021/12/15 13:16:38;;;;;;;6.53;5.17;;;;;;;;;;5043687;28;20229;-76
2021/12/15 13:19:12;;;;;;;5.67;4.60;;;;;;;;;;5051548;28;20238;-77
2021/12/15 13:21:41;;;;;;;7.33;4.40;;;;;;;;;;5051332;28;20804;-76
2021/12/15 13:28:41;;;;;;;8.23;4.53;;;;;;;;;;5050228;28;20253;-77
2021/12/15 13:30:23;;;;;;;6.60;4.53;;;;;;;;;;5031219;28;20342;-77
2021/12/15 13:32:50;;;;;;;8.33;5.37;;;;;;;;;;5031484;28;20211;-76
2021/12/15 13:35:24;;;;;;;5.60;4.80;;;;;;;;;;5031248;28;20237;-76
2021/12/15 13:37:57;;;;;;;7.10;5.23;;;;;;;;;;5031741;28;20230;-76
2021/12/15 13:40:43;;;;;;;5.47;4.90;;;;;;;;;;5031112;28;20238;-77
2021/12/15 13:43:25;;;;;;;6.47;5.07;;;;;;;;;;5030448;28;20214;-77
2021/12/15 13:45:53;;;;;;;6.77;5.23;;;;;;;;;;5031892;28;20237;-77
2021/12/15 13:48:46;;;;;;;7.20;5.63;;;;;;;;;;5032120;28;20230;-77
2021/12/15 13:51:13;;;;;;;8.53;5.97;;;;;;;;;;5030664;28;20234;-77
2021/12/15 13:53:40;;;;;;;7.33;6.00;;;;;;;;;;5030744;28;20198;-79
2021/12/15 13:56:08;;;;;;;7.07;6.07;;;;;;;;;;5031164;28;20214;-76
2021/12/15 13:58:35;;;;;;;7.80;6.17;;;;;;;;;;5031208;28;20230;-77
2021/12/15 14:01:06;;;;;;;8.10;6.60;;;;;;;;;;5031107;28;20203;-76
2021/12/15 14:03:34;;;;;;;7.63;6.53;;;;;;;;;;5030900;28;20226;-77
2021/12/15 14:06:10;;;;;;;10.97;7.47;;;;;;;;;;5030994;28;20832;-76
2021/12/15 14:08:38;;;;;;;8.80;7.63;;;;;;;;;;5030978;28;20226;-78
2021/12/15 14:11:08;;;;;;;10.63;7.60;;;;;;;;;;5030837;28;20214;-77
2021/12/15 14:13:40;;;;;;;9.70;8.40;;;;;;;;;;5030754;28;20203;-76
2021/12/15 14:16:09;;;;;;;9.70;8.33;;;;;;;;;;5031070;28;20217;-76
2021/12/15 14:18:37;;;;;;;10.73;8.17;;;;;;;;;;5031665;28;20226;-76
2021/12/15 14:21:06;;;;;;;11.60;8.23;;;;;;;;;;5031211;28;20218;-76
2021/12/15 14:23:35;;;;;;;9.30;8.30;;;;;;;;;;5030988;28;20617;-75
2021/12/15 14:26:05;;;;;;;10.80;8.33;;;;;;;;;;5031322;28;20210;-76
2021/12/15 14:28:33;;;;;;;12.23;9.40;;;;;;;;;;5030453;28;20234;-77
2021/12/15 14:31:01;;;;;;;12.57;10.03;;;;;;;;;;5030796;28;20556;-76
2021/12/15 14:33:31;;;;;;;13.27;9.30;;;;;;;;;;5031004;28;20207;-76
2021/12/15 14:35:59;;;;;;;12.57;9.07;;;;;;;;;;5030820;28;20692;-76
2021/12/15 14:38:37;;;;;;;14.20;9.93;;;;;;;;;;5031288;28;20235;-76
2021/12/15 14:41:08;;;;;;;12.30;9.10;;;;;;;;;;5030382;28;20230;-76
2021/12/15 14:43:35;;;;;;;13.90;9.40;;;;;;;;;;5030336;28;20206;-77
2021/12/15 14:46:02;;;;;;;12.70;9.77;;;;;;;;;;5030671;28;20772;-76
2021/12/15 14:48:31;;;;;;;15.07;11.40;;;;;;;;;;5030597;28;20229;-76
2021/12/15 14:50:58;;;;;;;17.67;11.77;;;;;;;;;;5030556;28;20207;-77
2021/12/15 14:53:25;;;;;;;16.83;12.33;;;;;;;;;;5030940;28;20265;-77
2021/12/15 14:55:52;;;;;;;16.97;12.00;;;;;;;;;;5032793;28;20234;-77
2021/12/15 14:58:20;;;;;;;13.57;10.47;;;;;;;;;;5060570;22;20230;-83
2021/12/15 15:00:47;;;;;;;16.40;11.37;;;;;;;;;;5061594;28;20256;-83
2021/12/15 15:03:15;;;;;;;15.27;11.23;;;;;;;;;;5062900;28;20198;-82
2021/12/15 15:05:45;;;;;;;14.53;9.87;;;;;;;;;;5062554;28;20717;-82
2021/12/15 15:08:14;;;;;;;17.00;10.60;;;;;;;;;;5063935;28;20293;-83
2021/12/15 15:10:43;;;;;;;13.60;10.27;;;;;;;;;;5062030;28;20238;-84
2021/12/15 15:13:10;;;;;;;14.30;9.90;;;;;;;;;;5060273;28;20206;-83
2021/12/15 15:15:39;;;;;;;13.60;10.63;;;;;;;;;;5064219;28;20291;-85
2021/12/15 15:18:17;;;;;;;14.67;10.80;;;;;;;;;;5054221;28;20209;-84
2021/12/15 15:20:49;;;;;;;18.10;10.57;;;;;;;;;;5055217;28;20238;-84
2021/12/15 15:23:17;;;;;;;15.17;11.00;;;;;;;;;;5054321;28;20642;-84
2021/12/15 15:25:46;;;;;;;17.17;11.40;;;;;;;;;;5061863;28;20233;-82
2021/12/15 15:28:14;;;;;;;15.30;11.47;;;;;;;;;;5065308;28;20229;-83
2021/12/15 15:30:42;;;;;;;18.17;12.03;;;;;;;;;;5061979;28;20268;-83
2021/12/15 15:33:10;;;;;;;15.60;11.60;;;;;;;;;;5056562;28;20205;-84
2021/12/15 15:35:38;;;;;;;16.53;10.70;;;;;;;;;;5055909;28;20234;-84
2021/12/15 15:38:11;;;;;;;16.80;11.60;;;;;;;;;;5056961;28;20541;-83
2021/12/15 15:40:39;;;;;;;16.33;11.90;;;;;;;;;;5062870;28;20229;-83
2021/12/15 15:43:09;;;;;;;15.87;10.93;;;;;;;;;;5059142;28;20209;-85
2021/12/15 15:45:38;;;;;;;16.97;12.53;;;;;;;;;;5056807;28;20265;-85
2021/12/15 15:48:06;;;;;;;22.80;13.73;;;;;;;;;;5054356;28;20658;-85
2021/12/15 15:50:34;;;;;;;29.20;16.70;;;;;;;;;;5053852;28;20233;-85
2021/12/15 15:53:02;;;;;;;23.83;15.27;;;;;;;;;;5054381;28;20207;-85